• Join FlightAware (Why Join?)
  • Login
  • US Flag 
01:19AM EST


 

Airport Tracker/Info


-or-


 

Live Flight TrackerFlight Track Log ✈ N756WB ✈ 27-Aug-2013 ✈ KRDU - 2W6

Flight Track Log - Related Links

Times and Time Zones

All times are in EDT time to prevent confusion due to time zone crossing. See the N756WB flight status page for this flight to view local times or setup timezone preferences in your user account.

Time Position Orientation Groundspeed Altitude Reporting Facility
EDT Latitude Longitude Course Direction KTS MPH feet Rate Location/Type
06:50PM 35.8728 -78.8089 317° Northwest 75 86 1,100  Level Washington Center
06:51PM 35.8869 -78.8250 317° Northwest 79 91 1,800 720 Climbing Washington Center
06:52PM 35.9031 -78.8486 310° West 89 102 2,600 720 Climbing Washington Center
06:53PM 35.9217 -78.8544 346° North 93 107 3,300 600 Climbing Washington Center
06:55PM 35.9594 -78.8536 North 108 124 4,000 240 Climbing Washington Center
06:55PM 35.9844 -78.8519 North 138 159 3,900  Descending Washington Center
06:56PM 36.0242 -78.8511 North 135 155 4,000  Climbing Washington Center
06:57PM 36.0614 -78.8578 352° North 138 159 3,900  Descending Washington Center
06:58PM 36.0947 -78.8617 355° North 132 152 4,100 360 Climbing Washington Center
06:59PM 36.1247 -78.8372 33° Northeast 124 143 4,700 480 Climbing Washington Center
07:00PM 36.1506 -78.8022 48° Northeast 117 135 5,200 420 Climbing Washington Center
07:01PM 36.1722 -78.7750 45° Northeast 120 138 5,600 420 Climbing Washington Center
07:02PM 36.1958 -78.7450 46° Northeast 116 133 6,100 480 Climbing Washington Center
07:03PM 36.2194 -78.7203 40° Northeast 113 130 6,600 420 Climbing Washington Center
07:04PM 36.2392 -78.6925 49° Northeast 111 128 7,000 120 Climbing Washington Center
07:06PM 36.2736 -78.6425 49° Northeast 131 151 7,000  Level Washington Center
07:07PM 36.2994 -78.6150 41° Northeast 131 151 7,100  Climbing Washington Center
07:08PM 36.3297 -78.5775 45° Northeast 131 151 7,000 -60 Descending Washington Center
07:09PM 36.3533 -78.5475 46° Northeast 131 151 7,000  Level Washington Center
07:10PM 36.3814 -78.5100 47° Northeast 131 151 7,000  Level Washington Center
07:11PM 36.4114 -78.4775 41° Northeast 137 158 7,000 -60 Level Washington Center
07:12PM 36.4394 -78.4422 45° Northeast 137 158 6,900 -60 Descending Washington Center
07:13PM 36.4672 -78.4097 43° Northeast 137 158 6,900  Level Washington Center
07:14PM 36.4931 -78.3719 50° Northeast 137 158 7,000  Climbing Washington Center
07:15PM 36.5231 -78.3394 41° Northeast 137 158 6,900 -60 Descending Washington Center
07:16PM 36.5489 -78.3042 48° Northeast 137 158 6,900  Level Washington Center
07:17PM 36.5750 -78.2636 51° Northeast 137 158 6,900 -60 Level Washington Center
07:18PM 36.6028 -78.2308 43° Northeast 132 152 6,800  Descending Washington Center
07:19PM 36.6267 -78.1903 54° Northeast 132 152 6,900  Climbing Washington Center
07:20PM 36.6522 -78.1550 48° Northeast 132 152 6,900 -60 Level Washington Center
07:21PM 36.6783 -78.1169 49° Northeast 132 152 6,800  Descending Washington Center
07:22PM 36.7039 -78.0789 50° Northeast 132 152 6,900  Climbing Washington Center
07:23PM 36.7175 -78.0353 69° East 132 152 6,800  Descending Washington Center
07:24PM 36.7350 -77.9969 60° Northeast 132 152 6,900 60 Climbing Washington Center
07:25PM 36.7586 -77.9589 52° Northeast 132 152 7,000  Climbing Washington Center
07:26PM 36.7822 -77.9258 48° Northeast 132 152 7,000  Level Washington Center
07:27PM 36.8081 -77.8903 48° Northeast 127 146 7,000  Level Washington Center
07:28PM 36.8294 -77.8597 49° Northeast 127 146 7,000  Level Washington Center
07:29PM 36.8550 -77.8269 46° Northeast 132 152 7,000  Level Washington Center
07:30PM 36.8828 -77.7939 44° Northeast 132 152 7,000  Level Washington Center
07:31PM 36.9064 -77.7583 50° Northeast 132 152 7,000 -60 Level Washington Center
07:32PM 36.9319 -77.7225 48° Northeast 132 152 6,900  Descending Washington Center
07:33PM 36.9556 -77.6867 50° Northeast 132 152 7,000  Climbing Washington Center
07:35PM 37.0000 -77.6167 52° Northeast 139 160 7,000  Level Potomac TRACON
07:36PM 37.0333 -77.5833 39° Northeast 133 153 7,000  Level Potomac TRACON
07:37PM 37.0500 -77.5667 39° Northeast 135 155 7,000  Level Potomac TRACON
07:38PM 37.0833 -77.5333 39° Northeast 138 159 7,000  Level Potomac TRACON
07:39PM 37.1000 -77.4833 67° East 138 159 7,000  Level Potomac TRACON
07:40PM 37.1167 -77.4500 58° Northeast 135 155 7,100  Climbing Potomac TRACON
07:40PM 37.1333 -77.4167 58° Northeast 139 160 7,000  Descending Potomac TRACON
07:41PM 37.1500 -77.3667 67° East 132 152 7,100  Climbing Potomac TRACON
07:42PM 37.1833 -77.3333 39° Northeast 132 152 7,100  Level Potomac TRACON
07:43PM 37.2167 -77.3167 22° Northeast 131 151 7,100 -60 Level Potomac TRACON
07:44PM 37.2500 -77.3000 22° Northeast 135 155 7,000 -120 Descending Potomac TRACON
07:45PM 37.2833 -77.2667 39° Northeast 140 161 6,900  Descending Potomac TRACON
07:46PM 37.3167 -77.2500 22° Northeast 134 154 7,000 60 Climbing Potomac TRACON
07:47PM 37.3333 -77.2333 38° Northeast 131 151 7,100  Climbing Potomac TRACON
07:48PM 37.3667 -77.2167 22° Northeast 139 160 7,100 -60 Level Potomac TRACON
07:49PM 37.4000 -77.2000 22° Northeast 139 160 7,000 -60 Descending Potomac TRACON
07:50PM 37.4333 -77.1667 38° Northeast 135 155 7,000 -60 Level Potomac TRACON
07:51PM 37.4667 -77.1500 22° Northeast 133 153 6,900 -60 Descending Potomac TRACON
07:52PM 37.5000 -77.1333 22° Northeast 139 160 6,900  Level Potomac TRACON
07:53PM 37.5333 -77.1000 38° Northeast 135 155 6,900  Level Potomac TRACON
07:54PM 37.5667 -77.0833 22° Northeast 133 153 6,900  Level Potomac TRACON
07:55PM 37.6000 -77.0667 22° Northeast 135 155 7,000  Climbing Potomac TRACON
07:56PM 37.6333 -77.0333 38° Northeast 136 157 6,900 -60 Descending Potomac TRACON
07:57PM 37.6667 -77.0167 22° Northeast 135 155 6,900  Level Potomac TRACON
07:58PM 37.7000 -77.0000 22° Northeast 134 154 6,900  Level Potomac TRACON
07:59PM 37.7333 -76.9833 22° Northeast 128 147 6,900  Level Potomac TRACON
08:00PM 37.7667 -76.9500 38° Northeast 140 161 6,900  Level Potomac TRACON
08:01PM 37.7883 -76.9319 33° Northeast 132 152 6,900  Level Washington Center
08:02PM 37.8219 -76.9061 31° Northeast 137 158 6,900  Level Washington Center
08:03PM 37.8556 -76.8778 34° Northeast 135 155 7,000  Climbing Washington Center
08:04PM 37.8892 -76.8575 25° Northeast 134 154 7,000  Level Washington Center
08:05PM 37.9228 -76.8317 31° Northeast 138 159 7,000  Level Washington Center
08:06PM 37.9583 -76.8139 22° Northeast 140 161 7,000 -60 Level Washington Center
08:07PM 37.9983 -76.7958 20° North 138 159 6,900 -180 Descending Washington Center
08:08PM 38.0339 -76.7756 24° Northeast 134 154 6,700 -540 Descending Washington Center
08:10PM 38.0675 -76.7550 26° Northeast 135 155 5,900 -840 Descending Washington Center
08:11PM 38.1031 -76.7394 19° North 131 151 5,100 -840 Descending Washington Center
08:12PM 38.1386 -76.7375 North 124 143 4,300 -660 Descending Washington Center
08:13PM 38.1719 -76.7381 359° North 122 140 3,800 -600 Descending Washington Center
08:14PM 38.2075 -76.7358 North 122 140 3,200 -420 Descending Washington Center
08:15PM 38.2386 -76.7336 North 121 139 3,000 -120 Descending Washington Center
08:16PM 38.2742 -76.7342 359° North 118 136 3,000 -120 Level Washington Center
08:17PM 38.3056 -76.7322 North 110 127 2,800 -300 Descending Washington Center
08:18PM 38.3306 -76.7272 North 93 107 2,400 -480 Descending Washington Center
08:19PM 38.3475 -76.7036 48° Northeast 98 113 1,900 -420 Descending Washington Center
08:20PM 38.3353 -76.6744 118° Southeast 92 106 1,600 -300 Descending Washington Center
08:21PM 38.3314 -76.6425 99° East 90 104 1,400 -360 Descending Washington Center
08:22PM 38.3253 -76.6133 105° East 91 105 900 -480 Descending Washington Center
08:23PM 38.3214 -76.5814 99° East 88 101 500 -420 Descending Washington Center